KHVE/HVE METAR and TAF weather

Enter ICAO airport designator
Station Type Date Time Source
KHVE METAR 2023/11/30 07:55 UTC NOAA

KHVE 300755Z AUTO 00000KT 10SM CLR M01/M05 A2991 RMK AO2


Station Type Date Time Source
KHVE Decoded METAR 2023/11/30 07:55 UTC NOAA

Station name not available
Nov 30, 2023 - 02:55 AM EST / 2023.11.30 0755 UTC
Wind: Calm:0
Visibility: 10 mile(s):0
Sky conditions: clear
Temperature: 30 F (-1 C)
Dew Point: 23 F (-5 C)
Relative Humidity: 74%
Pressure (altimeter): 29.91 in. Hg (1012 hPa)
ob: KHVE 300755Z AUTO 00000KT 10SM CLR M01/M05 A2991 RMK AO2
cycle: 8

Station Type Date Time Source
KHVE TAF UTC NOAA

Error!

Example: see airport list